Tiempo atmosférico en la estación meteorológica de Irurtzun, Navarra (455 m.)



Fecha
DESCASC
Temp. máxima en grados centígrados (hora)
DESCASC
Temp. mínima en grados centígrados (hora)
DESCASC
Temp. media en grados centígrados
DESCASC
Racha de viento máxima en m/sg (hora)
DESCASC
Velocidad máxima media en intervalos de 10 minutos(hora)
DESCASC
Precipitaciones diarias en mm
DESCASC
Precipitaciones de 00:00 a 06:00 en mm
DESCASC
Precipitaciones de 06:00 a 12:00 en mm
DESCASC
Precipitaciones de 12:00 a 18:00 en mm
DESCASC
Precipitaciones de 18:00 a 24:00 en mm
DESCASC
30-12-2019 -- (--) -- (--) -- -- (--) -- (--) -- 0 0 0 --
05-01-2020 11.4 (15:00) -0.4 (00:00) 5.5 7.5 (13:10) 3.61 (13:00) 0 0 0 0 0
14-01-2020 10.1 (14:00) 3.1 (00:00) 6.6 12.5 (22:10) 8.33 (22:10) 0 0 0 0 0
12-01-2020 11.9 (14:30) -2.1 (-00:0) 4.9 7.5 (15:10) 4.17 (15:00) 0 0 0 0 0
15-01-2020 10.7 (16:50) 3.2 (00:00) 6.9 12.5 (10:40) 6.39 (02:00) 0 0 0 0 0
16-01-2020 14.4 (14:30) 2.7 (00:00) 8.5 11.67 (20:50) 6.39 (22:50) 0 0 0 0 0
20-01-2020 3.6 (13:50) 0.7 (00:00) 2.1 14.44 (00:10) 5.56 (07:00) 0 0 0 0 0
08-01-2020 17.2 (14:30) 4.3 (00:00) 10.8 7.5 (23:00) 4.44 (22:20) 0 0 0 0 0
07-01-2020 14.9 (16:00) -0.3 (00:00) 7.3 6.39 (15:20) 3.06 (15:20) 0 0 0 0 0
06-01-2020 9.9 (16:40) -0.7 (-00:0) 4.6 6.39 (07:30) 3.61 (07:20) 0 0 0 0 0
21-01-2020 4 (23:59) 1.7 (00:00) 2.9 10.28 (10:00) 5.56 (08:50) 0 0 0 0 0
22-01-2020 11.8 (15:20) 2.9 (00:00) 7.4 7.22 (18:10) 3.33 (00:50) 0 0 0 0 0
02-01-2020 3.1 (16:10) -0.1 (00:00) 1.5 8.06 (13:50) 5 (23:59) 0 0 0 0 0
24-01-2020 11.5 (15:10) 5.7 (00:00) 8.6 10 (04:50) 4.72 (04:50) 0 0 0 0 0
31-12-2019 2.9 (15:30) 0.6 (00:00) 1.8 3.61 (10:10) 1.94 (10:20) 0 0 0 0 0
29-12-2019 7.6 (14:00) -2.1 (-00:0) 2.8 2.78 (13:20) 1.67 (13:20) 0 0 0 0 0
27-12-2019 12.6 (15:50) -1.3 (-00:0) 5.7 5.28 (18:20) 2.22 (13:40) 0 0 0 0 0
28-12-2019 15.4 (15:40) -1 (-00:0) 7.2 7.78 (14:30) 3.33 (14:30) 0.2 0 0.2 0 0
13-01-2020 8 (15:40) -2.3 (-00:0) 2.9 9.17 (23:30) 4.72 (20:30) 0.2 0 0.2 0 0
11-01-2020 11.5 (16:20) -0.6 (-00:0) 5.4 4.72 (13:00) 2.78 (13:00) 0.2 0 0 0.2 0
01-01-2020 3.8 (15:00) -0.3 (00:00) 1.7 3.33 (06:20) 1.67 (13:20) 0.2 0.2 0 0 0
03-01-2020 8 (21:40) -0.4 (00:00) 3.8 7.5 (00:10) 4.72 (00:10) 0.4 0 0 0.2 0.2
25-01-2020 9.5 (17:00) 4.2 (00:00) 6.8 8.33 (12:40) 3.61 (12:50) 1.2 0 0 0.4 0.8
04-01-2020 9.5 (12:30) 6.3 (00:00) 7.9 7.78 (21:10) 4.17 (21:10) 1.8 0.8 0.6 0.4 0
09-01-2020 11 (15:00) 2.9 (00:00) 7 9.17 (13:10) 5 (02:40) 2.2 0 0 0 2.2
23-01-2020 7.7 (23:30) 5.7 (00:00) 6.7 8.06 (23:00) 3.89 (23:20) 2.6 0 2.6 0 0
17-01-2020 11.9 (00:00) 2.7 (00:00) 7.3 10.28 (10:00) 5 (09:50) 3.2 0 2.8 0.4 0
19-01-2020 7.1 (15:20) 2.4 (00:00) 4.8 15.83 (21:50) 5.56 (23:30) 5.6 5.6 0 0 0
10-01-2020 8.3 (14:40) 4.3 (00:00) 6.3 9.17 (14:30) 4.17 (03:10) 6.4 0.4 2.6 2.8 0.6
18-01-2020 10.3 (15:00) 0.7 (00:00) 5.5 11.11 (13:40) 4.72 (15:10) 17.2 0 0 1.8 15.4

Gráficas

Temp. máximas Temp. mínimas Temp. medias Precipitaciones Rachas de viento máximas Velocidades máximas media en intervalos de 10 minutos

Datos horarios

Fecha y hora oficial Temperatura (ºC) Velocidad del viento (km/h) Dirección del viento Racha (km/h) Dirección de racha Precipitación (mm) Presión (hPa) Tendencia (hPa) Humedad (%)
2020-01-25 23:00:00 7.8 0 Calma 5 Nordeste 0 -- -- 95
2020-01-25 22:00:00 7.9 3 Norte 5 Norte 0.2 -- -- 94
2020-01-25 21:00:00 8.2 2 Nordeste 7 Este 0.2 -- -- 92
2020-01-25 20:00:00 8.5 0 Calma 12 Este 0.2 -- -- 89
2020-01-25 19:00:00 9.1 5 Este 22 Este 0.2 -- -- 85
2020-01-25 18:00:00 9.4 9 Este 25 Sudeste 0 -- -- 81
2020-01-25 17:00:00 9.5 13 Sudeste 23 Sudeste 0 -- -- 81
2020-01-25 16:00:00 8.9 3 Este 24 Este 0 -- -- 88
2020-01-25 15:00:00 8.5 8 Este 18 Nordeste 0.2 -- -- 89
2020-01-25 14:00:00 8.4 8 Este 26 Sudeste 0 -- -- 86
2020-01-25 13:00:00 9.1 12 Sudeste 30 Sudeste 0.2 -- -- 82
2020-01-25 12:00:00 9.2 8 Este 24 Este 0 -- -- 78
2020-01-25 11:00:00 7.2 0 Calma 10 Norte 0 -- -- 87
2020-01-25 10:00:00 5.3 5 Norte 11 Norte 0 -- -- 91
2020-01-25 09:00:00 4.6 5 Norte 13 Norte 0 -- -- 92
2020-01-25 08:00:00 4.2 4 Norte 12 Norte 0 -- -- 92
2020-01-25 07:00:00 4.3 5 Norte 10 Norte 0 -- -- 92
2020-01-25 06:00:00 4.9 4 Norte 9 Nordeste 0 -- -- 90
2020-01-25 05:00:00 6.1 4 Norte 18 Sudeste 0 -- -- 87
2020-01-25 04:00:00 8.6 6 Sudeste 23 Sudeste 0 -- -- 79
2020-01-25 03:00:00 7.8 6 Sudeste 16 Sudeste 0 -- -- 83
2020-01-25 02:00:00 4.7 0 Calma 5 Norte 0 -- -- 93
2020-01-25 01:00:00 5 3 Noroeste 6 Norte 0 -- -- 90
2020-01-25 00:00:00 5.8 3 Nordeste 5 Norte 0 -- -- 89
2020-01-24 23:00:00 7.7 0 Calma 23 Este 0 -- -- 82
2020-01-24 22:00:00 9 5 Nordeste 19 Sudeste 0 -- -- 77
2020-01-24 21:00:00 8.6 0 Calma 7 Este 0 -- -- 81
2020-01-24 20:00:00 8.9 2 Este 9 Este 0 -- -- 82
2020-01-24 19:00:00 9.3 2 Este 8 Este 0 -- -- 81
2020-01-24 18:00:00 10.4 4 Este 14 Este 0 -- -- 75
2020-01-24 17:00:00 10.8 6 Este 15 Este 0 -- -- 71
2020-01-24 16:00:00 11.1 2 Nordeste 14 Sudeste 0 -- -- 72
2020-01-24 15:00:00 11.4 6 Este 19 Este 0 -- -- 71
2020-01-24 14:00:00 11 10 Este 21 Nordeste 0 -- -- 70
2020-01-24 13:00:00 11 5 Sudeste 17 Sudeste 0 -- -- 72
2020-01-24 12:00:00 10.3 7 Sudeste 18 Sur 0 -- -- 73
2020-01-24 11:00:00 10.6 5 Este 12 Nordeste 0 -- -- 72
2020-01-24 10:00:00 8.3 6 Nordeste 14 Nordeste 0 -- -- 81
2020-01-24 09:00:00 7.6 5 Nordeste 19 Sudeste 0 -- -- 83
2020-01-24 08:00:00 7.7 8 Sudeste 21 Sudeste 0 -- -- 83
2020-01-24 07:00:00 7.8 10 Sudeste 24 Sudeste 0 -- -- 83
2020-01-24 06:00:00 7.8 5 Sudeste 21 Sudeste 0 -- -- 82
2020-01-24 05:00:00 7.9 13 Sudeste 36 Sudeste 0 -- -- 81
2020-01-24 04:00:00 7.9 5 Sudeste 19 Sudeste 0 -- -- 80
2020-01-24 03:00:00 7.6 4 Este 21 Este 0 -- -- 81
2020-01-24 02:00:00 7.6 9 Este 33 Sudeste 0 -- -- 80
2020-01-24 01:00:00 7.8 11 Sudeste 25 Sudeste 0 -- -- 78
2020-01-24 00:00:00 7.6 6 Este 27 Sudeste 0 -- -- 79
2020-01-23 23:00:00 7.6 14 Sudeste 29 Este 0 -- -- 79
2020-01-23 22:00:00 7.3 4 Este 21 Sudeste 0 -- -- 82
2020-01-23 21:00:00 7.1 4 Este 15 Este 0 -- -- 84
2020-01-23 20:00:00 7.2 4 Este 18 Sudeste 0 -- -- 85
2020-01-23 19:00:00 7.4 3 Nordeste 29 Sudeste 0 -- -- 84
2020-01-23 18:00:00 7.5 9 Este 21 Sudeste 0 -- -- 86
2020-01-23 17:00:00 7.5 5 Nordeste 19 Este 0 -- -- 87
2020-01-23 16:00:00 7.4 4 Este 18 Este 0 -- -- 90
2020-01-23 15:00:00 7 4 Este 10 Sudeste 0 -- -- 93
2020-01-23 14:00:00 6.9 4 Este 14 Este 0 -- -- 94
2020-01-23 13:00:00 6.9 7 Este 14 Este 0 -- -- 93
2020-01-23 12:00:00 6.6 5 Este 11 Este 0.4 -- -- 94
2020-01-23 11:00:00 6.3 5 Sudeste 10 Este 0 -- -- 95
2020-01-23 10:00:00 5.9 0 Calma 3 Sudoeste 0.6 -- -- 95
2020-01-23 09:00:00 5.8 0 Calma 2 Sudeste 1 -- -- 94
2020-01-23 08:00:00 5.9 0 Calma 6 Este 0.6 -- -- 92
2020-01-23 07:00:00 5.9 0 Calma 4 Este 0 -- -- 90
2020-01-23 06:00:00 6.5 0 Calma 5 Nordeste 0 -- -- 87
2020-01-23 05:00:00 6.8 0 Calma 9 Este 0 -- -- 87
2020-01-23 04:00:00 6.9 3 Este 9 Nordeste 0 -- -- 89
2020-01-23 03:00:00 6.9 4 Este 10 Este 0 -- -- 90
2020-01-23 02:00:00 6.7 3 Este 13 Este 0 -- -- 91
2020-01-23 01:00:00 6 0 Calma 4 Nordeste 0 -- -- 92
2020-01-23 00:00:00 6.1 0 Calma 5 Nordeste 0 -- -- 93
2020-01-22 23:00:00 6 0 Calma 3 Noroeste 0 -- -- 93
2020-01-22 22:00:00 6.5 3 Noroeste 8 Oeste 0 -- -- 91
2020-01-22 21:00:00 7.1 3 Noroeste 7 Sudoeste 0 -- -- 89
2020-01-22 20:00:00 7.5 0 Calma 5 Noroeste 0 -- -- 85
2020-01-22 19:00:00 8.3 0 Calma 26 Noroeste 0 -- -- 78
2020-01-22 18:00:00 9.2 9 Norte 21 Noroeste 0 -- -- 75
2020-01-22 17:00:00 10 5 Noroeste 11 Noroeste 0 -- -- 72
2020-01-22 16:00:00 10.6 5 Oeste 12 Oeste 0 -- -- 68
2020-01-22 15:00:00 11.4 5 Oeste 9 Oeste 0 -- -- 67
2020-01-22 14:00:00 10.2 4 Oeste 12 Oeste 0 -- -- 73
2020-01-22 13:00:00 9 4 Oeste 10 Sur 0 -- -- 76
2020-01-22 12:00:00 7.1 3 Sudoeste 8 Oeste 0 -- -- 83
2020-01-22 11:00:00 6.3 3 Oeste 9 Oeste 0 -- -- 88
2020-01-22 10:00:00 3.9 2 Nordeste 6 Este 0 -- -- 95
2020-01-22 09:00:00 3.4 2 Norte 6 Norte 0 -- -- 95
2020-01-22 08:00:00 3 3 Norte 6 Norte 0 -- -- 94
2020-01-22 07:00:00 3.6 2 Norte 9 Noroeste 0 -- -- 93
2020-01-22 06:00:00 4.1 3 Oeste 8 Oeste 0 -- -- 92
2020-01-22 05:00:00 3.9 0 Calma 8 Noroeste 0 -- -- 92
2020-01-22 04:00:00 4 3 Oeste 8 Oeste 0 -- -- 91
2020-01-22 03:00:00 4.1 2 Nordeste 18 Oeste 0 -- -- 90
2020-01-22 02:00:00 4 9 Oeste 22 Oeste 0 -- -- 89
2020-01-22 01:00:00 4.1 11 Oeste 22 Oeste 0 -- -- 87
2020-01-22 00:00:00 4 8 Oeste 21 Oeste 0 -- -- 88
2020-01-21 23:00:00 3.4 9 Oeste 23 Oeste 0 -- -- 87
2020-01-21 22:00:00 3.1 13 Oeste 27 Oeste 0 -- -- 88
2020-01-21 21:00:00 2.8 10 Oeste 26 Oeste 0 -- -- 88
2020-01-21 20:00:00 2.7 14 Oeste 31 Oeste 0 -- -- 88
2020-01-21 19:00:00 2.7 14 Oeste 27 Oeste 0 -- -- 87
2020-01-21 18:00:00 2.8 11 Oeste 27 Oeste 0 -- -- 86
2020-01-21 17:00:00 2.9 16 Oeste 31 Oeste 0 -- -- 85
2020-01-21 16:00:00 2.9 12 Oeste 26 Oeste 0 -- -- 85
2020-01-21 15:00:00 2.5 11 Oeste 30 Oeste 0 -- -- 86
2020-01-21 14:00:00 2.7 10 Oeste 29 Oeste 0 -- -- 85
2020-01-21 13:00:00 2.6 12 Noroeste 31 Oeste 0 -- -- 85
2020-01-21 12:00:00 2.5 14 Oeste 27 Norte 0 -- -- 83
2020-01-21 11:00:00 2.2 13 Oeste 28 Oeste 0 -- -- 83
2020-01-21 10:00:00 1.9 12 Oeste 37 Sudoeste 0 -- -- 83
2020-01-21 09:00:00 1.8 12 Oeste 35 Oeste 0 -- -- 81
2020-01-21 08:00:00 1.7 15 Oeste 31 Oeste 0 -- -- 80
2020-01-21 07:00:00 1.8 16 Oeste 35 Sudoeste 0 -- -- 78
2020-01-21 06:00:00 2 16 Oeste 34 Oeste 0 -- -- 76
2020-01-21 05:00:00 2.2 14 Oeste 30 Oeste 0 -- -- 74
2020-01-21 04:00:00 2.6 12 Noroeste 30 Oeste 0 -- -- 72
2020-01-21 03:00:00 2.6 8 Oeste 23 Oeste 0 -- -- 72
2020-01-21 02:00:00 2.3 6 Oeste 23 Oeste 0 -- -- 70
2020-01-21 01:00:00 2.2 9 Noroeste 27 Norte 0 -- -- 70
2020-01-21 00:00:00 2.2 9 Noroeste 24 Oeste 0 -- -- 72
2020-01-20 23:00:00 2.1 13 Oeste 30 Sudoeste 0 -- -- 72
2020-01-20 22:00:00 2.1 8 Oeste 28 Oeste 0 -- -- 72
2020-01-20 21:00:00 2.3 7 Noroeste 22 Oeste 0 -- -- 72
2020-01-20 20:00:00 2.5 6 Noroeste 26 Norte 0 -- -- 70
2020-01-20 19:00:00 2.6 8 Noroeste 31 Nordeste 0 -- -- 70
2020-01-20 18:00:00 2.5 6 Noroeste 26 Oeste 0 -- -- 70
2020-01-20 17:00:00 2.7 9 Norte 24 Norte 0 -- -- 66
2020-01-20 16:00:00 3.1 9 Norte 27 Norte 0 -- -- 59
2020-01-20 15:00:00 3.4 9 Norte 36 Norte 0 -- -- 57
2020-01-20 14:00:00 3.5 9 Noroeste 30 Norte 0 -- -- 57
2020-01-20 13:00:00 3.1 4 Noroeste 30 Noroeste 0 -- -- 64
2020-01-20 12:00:00 2.2 8 Oeste 33 Noroeste 0 -- -- 66
2020-01-20 11:00:00 1.5 9 Noroeste 33 Oeste 0 -- -- 68
2020-01-20 10:00:00 0.9 14 Norte 44 Noroeste 0 -- -- 70
2020-01-20 09:00:00 0.7 15 Noroeste 39 Norte 0 -- -- 73
2020-01-20 08:00:00 0.9 15 Noroeste 47 Norte 0 -- -- 72
2020-01-20 07:00:00 0.9 20 Noroeste 52 Noroeste 0 -- -- 72
2020-01-20 06:00:00 1 12 Noroeste 38 Noroeste 0 -- -- 73
2020-01-20 05:00:00 1.2 10 Norte 36 Noroeste 0 -- -- 72
2020-01-20 04:00:00 1.5 9 Noroeste 34 Sudoeste 0 -- -- 72
2020-01-20 03:00:00 1.6 8 Norte 40 Norte 0 -- -- 70
2020-01-20 02:00:00 1.8 10 Norte 31 Sudoeste 0 -- -- 71
2020-01-20 01:00:00 2.1 10 Oeste 52 Oeste 0 -- -- 70
2020-01-20 00:00:00 2.4 15 Noroeste 53 Noroeste 0 -- -- 68
2020-01-19 23:00:00 2.8 12 Noroeste 56 Oeste 0 -- -- 66
2020-01-19 22:00:00 3.2 15 Noroeste 57 Noroeste 0 -- -- 64
2020-01-19 21:00:00 3.8 11 Noroeste 51 Oeste 0 -- -- 60
2020-01-19 20:00:00 4.4 9 Norte 43 Noroeste 0 -- -- 58
2020-01-19 19:00:00 4.7 16 Noroeste 51 Noroeste 0 -- -- 56
2020-01-19 18:00:00 5 7 Noroeste 41 Noroeste 0 -- -- 58
2020-01-19 17:00:00 5.4 8 Noroeste 31 Nordeste 0 -- -- 61
2020-01-19 16:00:00 6.2 8 Noroeste 26 Noroeste 0 -- -- 61
2020-01-19 15:00:00 7 6 Oeste 33 Oeste 0 -- -- 64
2020-01-19 14:00:00 6.3 13 Noroeste 37 Oeste 0 -- -- 67
2020-01-19 13:00:00 5.1 11 Oeste 29 Noroeste 0 -- -- 75
2020-01-19 12:00:00 4.2 10 Oeste 24 Oeste 0 -- -- 80
2020-01-19 11:00:00 4.5 7 Noroeste 28 Noroeste 0 -- -- 76
2020-01-19 10:00:00 5.1 4 Norte 38 Norte 0 -- -- 76
2020-01-19 09:00:00 5.5 13 Norte 40 Noroeste 0 -- -- 79
2020-01-19 08:00:00 5.9 9 Noroeste 44 Noroeste 0 -- -- 80
2020-01-19 07:00:00 6.2 10 Norte 34 Noroeste 0 -- -- 78
2020-01-19 06:00:00 6.2 11 Noroeste 41 Noroeste 0.2 -- -- 83
2020-01-19 05:00:00 6.4 6 Noroeste 21 Norte 0 -- -- 93
2020-01-19 04:00:00 4.7 0 Calma 12 Oeste 0.8 -- -- 97
2020-01-19 03:00:00 4.4 0 Calma 5 Noroeste 2.2 -- -- 96
2020-01-19 02:00:00 4.4 0 Calma 2 Norte 1.6 -- -- 95
2020-01-19 01:00:00 4.4 0 Calma 4 Oeste 0.8 -- -- 94
2020-01-19 00:00:00 4.8 3 Sur 12 Oeste 0.6 -- -- 92
2020-01-18 23:00:00 5 6 Noroeste 18 Oeste 1.4 -- -- 90
2020-01-18 22:00:00 5.5 8 Noroeste 18 Noroeste 1.4 -- -- 90
2020-01-18 21:00:00 5.9 7 Noroeste 19 Oeste 3.8 -- -- 92
2020-01-18 20:00:00 7.3 4 Norte 17 Sudeste 5.2 -- -- 92
2020-01-18 19:00:00 7.3 0 Calma 12 Sudeste 3 -- -- 90
2020-01-18 18:00:00 8.2 5 Este 27 Este 1.2 -- -- 82
2020-01-18 17:00:00 8.8 13 Este 28 Este 0.6 -- -- 79
2020-01-18 16:00:00 10.2 10 Este 39 Sudeste 0 -- -- 68
2020-01-18 15:00:00 10.3 16 Sudeste 35 Sudeste 0 -- -- 66
2020-01-18 14:00:00 9.5 5 Sudeste 40 Sur 0 -- -- 66
2020-01-18 13:00:00 8.4 11 Este 33 Sudeste 0 -- -- 70
2020-01-18 12:00:00 8.4 9 Este 27 Este 0 -- -- 68
2020-01-18 11:00:00 5.5 5 Este 19 Este 0 -- -- 82
2020-01-18 10:00:00 4 7 Sudeste 14 Sudeste 0 -- -- 88
2020-01-18 09:00:00 3.2 3 Nordeste 14 Este 0 -- -- 92
2020-01-18 08:00:00 3.1 6 Este 12 Sudeste 0 -- -- 95
2020-01-18 07:00:00 1.9 3 Nordeste 6 Norte 0 -- -- 97
2020-01-18 06:00:00 1.5 2 Sudoeste 5 Oeste 0 -- -- 97
2020-01-18 05:00:00 1.3 0 Calma 3 Sur 0 -- -- 97
2020-01-18 04:00:00 1.2 0 Calma 4 Norte 0 -- -- 97
2020-01-18 03:00:00 0.7 0 Calma 6 Nordeste 0 -- -- 96
2020-01-18 02:00:00 1.1 0 Calma 7 Nordeste 0 -- -- 96
2020-01-18 01:00:00 1.6 0 Calma 8 Sudeste 0 -- -- 95
2020-01-18 00:00:00 2.7 2 Nordeste 5 Norte 0 -- -- 93
2020-01-17 23:00:00 3.6 0 Calma 6 Norte 0 -- -- 92
2020-01-17 22:00:00 4.6 3 Norte 6 Norte 0 -- -- 89
2020-01-17 21:00:00 5.4 4 Norte 11 Norte 0 -- -- 87
2020-01-17 20:00:00 6.4 4 Norte 14 Noroeste 0 -- -- 81
2020-01-17 19:00:00 6.7 2 Norte 5 Oeste 0 -- -- 85
2020-01-17 18:00:00 6.6 3 Norte 9 Oeste 0 -- -- 83
2020-01-17 17:00:00 7.8 5 Noroeste 26 Oeste 0 -- -- 75
2020-01-17 16:00:00 9.4 12 Oeste 27 Noroeste 0 -- -- 71
2020-01-17 15:00:00 8.3 11 Noroeste 27 Noroeste 0 -- -- 74
2020-01-17 14:00:00 8.9 9 Oeste 27 Sudoeste 0.4 -- -- 78
2020-01-17 13:00:00 8.5 12 Noroeste 22 Noroeste 0 -- -- 78
2020-01-17 12:00:00 7.6 6 Noroeste 14 Noroeste 1.4 -- -- 86
2020-01-17 11:00:00 7.5 5 Oeste 29 Norte 1.4 -- -- 87
2020-01-17 10:00:00 8.2 18 Norte 37 Norte 0 -- -- 83
2020-01-17 09:00:00 7.9 0 Calma 11 Oeste 0 -- -- 85
2020-01-17 08:00:00 9.1 7 Sudeste 23 Este 0 -- -- 78
2020-01-17 07:00:00 8.9 4 Nordeste 12 Sudeste 0 -- -- 76
2020-01-17 06:00:00 8.7 4 Sur 13 Sudeste 0 -- -- 77
2020-01-17 05:00:00 9.3 9 Sudeste 25 Sudeste 0 -- -- 74
2020-01-17 04:00:00 10.4 8 Sudeste 24 Sudeste 0 -- -- 71
2020-01-17 03:00:00 10.1 7 Sudeste 22 Sudoeste 0 -- -- 73
2020-01-17 02:00:00 10.8 8 Sur 25 Sudeste 0 -- -- 70
2020-01-17 01:00:00 11.3 13 Sudeste 32 Sudeste 0 -- -- 67
2020-01-17 00:00:00 11.9 11 Sur 39 Sudeste 0 -- -- 64
2020-01-16 23:00:00 12.1 22 Sur 41 Sudeste 0 -- -- 63
2020-01-16 22:00:00 12.1 19 Sudeste 36 Sudeste 0 -- -- 64
2020-01-16 21:00:00 12.3 21 Sudeste 42 Sudeste 0 -- -- 66
2020-01-16 20:00:00 12.7 12 Sudeste 33 Sudeste 0 -- -- 66
2020-01-16 19:00:00 12.8 14 Sudeste 26 Sur 0 -- -- 67
2020-01-16 18:00:00 13.6 14 Sudeste 35 Sudeste 0 -- -- 65
2020-01-16 17:00:00 14.1 17 Sudeste 36 Sudeste 0 -- -- 65
2020-01-16 16:00:00 14.3 15 Sudeste 30 Sur 0 -- -- 64
2020-01-16 15:00:00 13.9 15 Sudeste 34 Sudeste 0 -- -- 65
2020-01-16 14:00:00 13.3 16 Sudeste 36 Sudeste 0 -- -- 68
2020-01-16 13:00:00 12.8 18 Sudeste 34 Sudeste 0 -- -- 68
2020-01-16 12:00:00 12.1 13 Sudeste 32 Sudeste 0 -- -- 70
2020-01-16 11:00:00 10.6 14 Sudeste 35 Sudeste 0 -- -- 74
2020-01-16 10:00:00 9 10 Este 39 Sudeste 0 -- -- 78
2020-01-16 09:00:00 8.6 16 Sudeste 32 Sudeste 0 -- -- 79
2020-01-16 08:00:00 6.2 2 Nordeste 17 Este 0 -- -- 84
2020-01-16 07:00:00 6.8 8 Este 18 Nordeste 0 -- -- 82
2020-01-16 06:00:00 6.7 12 Nordeste 20 Nordeste 0 -- -- 82
2020-01-16 05:00:00 6.2 2 Noroeste 26 Sudeste 0 -- -- 82
2020-01-16 04:00:00 8.1 8 Sur 26 Sudeste 0 -- -- 78
2020-01-16 03:00:00 8.6 9 Sudeste 29 Sudeste 0 -- -- 76
2020-01-16 02:00:00 8 13 Sudeste 23 Sudeste 0 -- -- 79
2020-01-16 01:00:00 3.4 3 Norte 9 Norte 0 -- -- 93
2020-01-16 00:00:00 3.2 4 Norte 10 Norte 0 -- -- 90
2020-01-15 23:00:00 4.1 2 Norte 12 Este 0 -- -- 85
2020-01-15 22:00:00 5.1 2 Nordeste 8 Este 0 -- -- 87
2020-01-15 21:00:00 5.3 4 Norte 8 Nordeste 0 -- -- 85
2020-01-15 20:00:00 6.3 4 Norte 10 Nordeste 0 -- -- 81
2020-01-15 19:00:00 7.8 3 Nordeste 13 Sudeste 0 -- -- 76
2020-01-15 18:00:00 10 7 Este 15 Sudeste 0 -- -- 68
2020-01-15 17:00:00 10.7 8 Este 18 Nordeste 0 -- -- 65
2020-01-15 16:00:00 10.6 7 Sudeste 26 Sudeste 0 -- -- 65
2020-01-15 15:00:00 10.2 8 Este 24 Sur 0 -- -- 65
2020-01-15 14:00:00 8.9 7 Sur 26 Sudeste 0 -- -- 69
2020-01-15 13:00:00 9 8 Sudeste 23 Sudeste 0 -- -- 67
2020-01-15 12:00:00 8.9 17 Sudeste 33 Sudeste 0 -- -- 68
2020-01-15 11:00:00 8.5 21 Sudeste 45 Sur 0 -- -- 70
2020-01-15 10:00:00 7.8 7 Sudeste 30 Sudeste 0 -- -- 72
2020-01-15 09:00:00 7.3 8 Este 27 Sudeste 0 -- -- 71
2020-01-15 08:00:00 7 12 Sudeste 39 Sudeste 0 -- -- 71
2020-01-15 07:00:00 6.8 11 Sudeste 25 Este 0 -- -- 70
2020-01-15 06:00:00 6.4 4 Sudoeste 20 Sudoeste 0 -- -- 71
2020-01-15 05:00:00 6.6 9 Sur 35 Sur 0 -- -- 69
2020-01-15 04:00:00 6.5 19 Sur 36 Sur 0 -- -- 69
2020-01-15 03:00:00 6.8 17 Sudeste 39 Sur 0 -- -- 66
2020-01-15 02:00:00 6.9 23 Sudeste 43 Sudeste 0 -- -- 66
2020-01-15 01:00:00 6.6 13 Sudeste 29 Sudeste 0 -- -- 67
2020-01-15 00:00:00 6.3 9 Sudeste 26 Sudeste 0 -- -- 70
2020-01-14 23:00:00 6.6 9 Sudeste 45 Sudeste 0 -- -- 68
2020-01-14 22:00:00 7.5 28 Sudeste 44 Sudeste 0 -- -- 65
2020-01-14 21:00:00 6.4 7 Este 22 Sudeste 0 -- -- 67
2020-01-14 20:00:00 6.4 11 Este 22 Este 0 -- -- 66
2020-01-14 19:00:00 6.8 7 Este 22 Este 0 -- -- 64
2020-01-14 18:00:00 7.2 9 Sudeste 28 Este 0 -- -- 63
2020-01-14 17:00:00 9 14 Sudeste 26 Sudeste 0 -- -- 56
2020-01-14 16:00:00 9.4 13 Sudeste 29 Nordeste 0 -- -- 56
2020-01-14 15:00:00 9.4 13 Este 27 Sudeste 0 -- -- 55
2020-01-14 14:00:00 10.1 12 Sudeste 27 Sudeste 0 -- -- 54
2020-01-14 13:00:00 9.6 16 Sudeste 33 Sudeste 0 -- -- 58
2020-01-14 12:00:00 7.6 18 Sudeste 29 Sudeste 0 -- -- 66
2020-01-14 11:00:00 5.1 16 Sudeste 28 Sudeste 0 -- -- 75
2020-01-14 10:00:00 4.2 6 Este 25 Sudeste 0 -- -- 74
2020-01-14 09:00:00 3.2 4 Nordeste 28 Sudeste 0 -- -- 79
2020-01-14 08:00:00 3.3 10 Sudeste 24 Sudeste 0 -- -- 80
2020-01-14 07:00:00 3.9 10 Sudeste 26 Sudeste 0 -- -- 75
2020-01-14 06:00:00 3.5 7 Este 26 Este 0 -- -- 78
2020-01-14 05:00:00 4.5 13 Sudeste 30 Sudeste 0 -- -- 72
2020-01-14 04:00:00 4.8 15 Sudeste 28 Sur 0 -- -- 71
2020-01-14 03:00:00 5 13 Sudeste 31 Sudeste 0 -- -- 70
2020-01-14 02:00:00 3.8 9 Sudeste 30 Este 0 -- -- 78
2020-01-14 01:00:00 3.4 9 Este 29 Nordeste 0 -- -- 81
2020-01-14 00:00:00 5 11 Sudeste 33 Sudeste 0 -- -- 70
2020-01-13 23:00:00 4.9 12 Sudeste 26 Este 0 -- -- 74
2020-01-13 22:00:00 4.8 15 Sudeste 25 Este 0 -- -- 75
2020-01-13 21:00:00 4.6 9 Este 26 Sudeste 0 -- -- 78
2020-01-13 20:00:00 6.3 12 Sudeste 21 Sudeste 0 -- -- 71
2020-01-13 19:00:00 6.1 8 Sudeste 16 Sudeste 0 -- -- 74
2020-01-13 18:00:00 6.4 7 Este 19 Este 0 -- -- 74
2020-01-13 17:00:00 7.6 14 Sudeste 29 Sudeste 0 -- -- 70
2020-01-13 16:00:00 7.7 13 Nordeste 24 Nordeste 0 -- -- 72
2020-01-13 15:00:00 6.6 16 Este 27 Este 0 -- -- 75
2020-01-13 14:00:00 6.5 5 Este 19 Este 0 -- -- 77
2020-01-13 13:00:00 5.3 8 Este 20 Sur 0 -- -- 79
2020-01-13 12:00:00 3.2 12 Este 24 Este 0 -- -- 84
2020-01-13 11:00:00 2 10 Este 20 Este 0.2 -- -- 90
2020-01-13 10:00:00 0.8 2 Sudeste 14 Este 0 -- -- 96
2020-01-13 09:00:00 -0.9 2 Noroeste 8 Noroeste 0 -- -- 96
2020-01-13 08:00:00 -1.4 2 Norte 6 Norte 0 -- -- 97
2020-01-13 07:00:00 -1 3 Norte 9 Norte 0 -- -- 97
2020-01-13 06:00:00 -1.3 3 Norte 7 Norte 0 -- -- 97
2020-01-13 05:00:00 -2.1 0 Calma 3 Norte 0 -- -- 96
2020-01-13 04:00:00 -2 0 Calma 2 Sur 0 -- -- 96
2020-01-13 03:00:00 -1.7 0 Calma 3 Norte 0 -- -- 96
2020-01-13 02:00:00 -1.3 0 Calma 4 Norte 0 -- -- 95
2020-01-13 01:00:00 -0.7 0 Calma 5 Nordeste 0 -- -- 95
2020-01-13 00:00:00 -0.1 2 Norte 5 Norte 0 -- -- 94
2020-01-12 23:00:00 0.9 2 Norte 8 Norte 0 -- -- 92
2020-01-12 22:00:00 2 2 Norte 7 Norte 0 -- -- 90
2020-01-12 21:00:00 3.3 3 Norte 7 Norte 0 -- -- 87
2020-01-12 20:00:00 4.3 3 Norte 7 Norte 0 -- -- 83
2020-01-12 19:00:00 6.3 3 Nordeste 15 Norte 0 -- -- 75
2020-01-12 18:00:00 7.9 8 Noroeste 21 Norte 0 -- -- 90
2020-01-12 17:00:00 10.8 4 Noroeste 18 Sudoeste 0 -- -- 57
2020-01-12 16:00:00 11.7 9 Noroeste 27 Oeste 0 -- -- 54
2020-01-12 15:00:00 11.7 15 Noroeste 26 Oeste 0 -- -- 54
2020-01-12 14:00:00 11.3 12 Oeste 27 Sudoeste 0 -- -- 56
2020-01-12 13:00:00 9.7 10 Oeste 23 Oeste 0 -- -- 67
2020-01-12 12:00:00 6.3 4 Noroeste 12 Oeste 0 -- -- 80
2020-01-12 11:00:00 1.9 3 Norte 10 Nordeste 0 -- -- 88
2020-01-12 10:00:00 -1 6 Norte 12 Norte 0 -- -- 93
2020-01-12 09:00:00 -1.6 4 Norte 14 Nordeste 0 -- -- 92
2020-01-12 08:00:00 -1.9 4 Norte 12 Nordeste 0 -- -- 93
2020-01-12 07:00:00 -2 4 Norte 10 Nordeste 0 -- -- 93
2020-01-12 06:00:00 -1.6 4 Norte 10 Norte 0 -- -- 95
2020-01-12 05:00:00 -1.5 4 Norte 12 Nordeste 0 -- -- 95
2020-01-12 04:00:00 -1.3 3 Norte 10 Norte 0 -- -- 96
2020-01-12 03:00:00 -1.2 3 Norte 9 Norte 0 -- -- 97
2020-01-12 02:00:00 -1.1 3 Norte 8 Norte 0 -- -- 97
2020-01-12 01:00:00 -0.6 3 Norte 7 Norte 0 -- -- 97
2020-01-12 00:00:00 -0.4 2 Norte 6 Noroeste 0 -- -- 96
2020-01-11 23:00:00 0.1 2 Norte 6 Norte 0 -- -- 96
2020-01-11 22:00:00 1 2 Noroeste 8 Nordeste 0 -- -- 94
2020-01-11 21:00:00 1.7 3 Noroeste 12 Noroeste 0 -- -- 94
2020-01-11 20:00:00 3 4 Norte 9 Norte 0 -- -- 92
2020-01-11 19:00:00 4.1 0 Calma 9 Norte 0 -- -- 88
2020-01-11 18:00:00 6.2 3 Norte 9 Oeste 0 -- -- 79
2020-01-11 17:00:00 10.3 4 Oeste 9 Noroeste 0 -- -- 64
2020-01-11 16:00:00 11.1 4 Oeste 14 Sudoeste 0 -- -- 65
2020-01-11 15:00:00 10.8 7 Sudoeste 17 Sudoeste 0 -- -- 66
2020-01-11 14:00:00 9.9 8 Oeste 17 Oeste 0.2 -- -- 70
2020-01-11 13:00:00 8.8 10 Oeste 17 Oeste 0 -- -- 74
2020-01-11 12:00:00 6.9 5 Sudoeste 11 Oeste 0 -- -- 90
2020-01-11 11:00:00 2.4 0 Calma 6 Oeste 0 -- -- 100
2020-01-11 10:00:00 1 3 Noroeste 7 Oeste 0 -- -- 99
2020-01-11 09:00:00 0.2 3 Noroeste 10 Oeste 0 -- -- 98
2020-01-11 08:00:00 0 2 Noroeste 16 Sudoeste 0 -- -- 99
2020-01-11 07:00:00 -0.5 0 Calma 3 Noroeste 0 -- -- 98
2020-01-11 06:00:00 0.1 3 Norte 4 Norte 0 -- -- 98
2020-01-11 05:00:00 0.6 0 Calma 6 Norte 0 -- -- 98
2020-01-11 04:00:00 1 0 Calma 4 Noroeste 0 -- -- 98
2020-01-11 03:00:00 1.3 0 Calma 5 Nordeste 0 -- -- 96
2020-01-11 02:00:00 2.3 2 Norte 4 Norte 0 -- -- 96
2020-01-11 01:00:00 3.1 0 Calma 6 Nordeste 0 -- -- 94
2020-01-11 00:00:00 4.3 3 Nordeste 8 Norte 0 -- -- 92
2020-01-10 23:00:00 5.6 4 Noroeste 13 Noroeste 0 -- -- 88
2020-01-10 22:00:00 6.3 7 Noroeste 13 Noroeste 0 -- -- 87
2020-01-10 21:00:00 6.7 7 Noroeste 14 Noroeste 0 -- -- 89
2020-01-10 20:00:00 6.5 6 Noroeste 15 Noroeste 0.2 -- -- 92
2020-01-10 19:00:00 6.6 2 Nordeste 17 Sudoeste 0.4 -- -- 92
2020-01-10 18:00:00 7.1 6 Oeste 26 Sudoeste 0.2 -- -- 88
2020-01-10 17:00:00 7.5 5 Noroeste 19 Oeste 0 -- -- 86
2020-01-10 16:00:00 7.4 5 Noroeste 17 Noroeste 0.4 -- -- 85
2020-01-10 15:00:00 8 5 Oeste 33 Sudoeste 0.6 -- -- 85
2020-01-10 14:00:00 8.1 8 Oeste 32 Oeste 1 -- -- 85
2020-01-10 13:00:00 7.7 6 Noroeste 20 Sudoeste 0.6 -- -- 88
2020-01-10 12:00:00 7.2 6 Noroeste 22 Oeste 0.6 -- -- 89
2020-01-10 11:00:00 6.8 8 Oeste 24 Sudoeste 1 -- -- 90
2020-01-10 10:00:00 6.6 5 Noroeste 23 Oeste 0.6 -- -- 88
2020-01-10 09:00:00 6.3 6 Oeste 19 Oeste 0.2 -- -- 88
2020-01-10 08:00:00 6.4 8 Noroeste 15 Oeste 0 -- -- 85
2020-01-10 07:00:00 6.2 7 Oeste 15 Noroeste 0.2 -- -- 89
2020-01-10 06:00:00 6.2 5 Noroeste 15 Sudoeste 0.2 -- -- 84
2020-01-10 05:00:00 6.7 5 Noroeste 22 Noroeste 0 -- -- 79
2020-01-10 04:00:00 7.1 10 Noroeste 24 Noroeste 0 -- -- 84
2020-01-10 03:00:00 7.7 15 Noroeste 30 Noroeste 0 -- -- 79
2020-01-10 02:00:00 8 12 Noroeste 25 Noroeste 0 -- -- 79
2020-01-10 01:00:00 8.1 9 Noroeste 21 Noroeste 0.2 -- -- 81
2020-01-10 00:00:00 7.7 9 Noroeste 15 Noroeste 0.6 -- -- 86
2020-01-09 23:00:00 6.3 2 Noroeste 5 Norte 0.4 -- -- 96
2020-01-09 22:00:00 6.1 0 Calma 2 Sudoeste 0.2 -- -- 95
2020-01-09 21:00:00 6.5 2 Sudoeste 12 Este 1 -- -- 91
2020-01-09 20:00:00 7.4 4 Sudeste 10 Sudeste 0 -- -- 84
2020-01-09 19:00:00 7.7 3 Sudeste 14 Este 0 -- -- 82
2020-01-09 18:00:00 7.6 9 Este 23 Este 0 -- -- 80
2020-01-09 17:00:00 8.5 13 Este 25 Este 0 -- -- 76
2020-01-09 16:00:00 11 5 Este 29 Sudeste 0 -- -- 67
2020-01-09 15:00:00 11 17 Sudeste 31 Sudeste 0 -- -- 66
2020-01-09 14:00:00 10.5 12 Este 33 Nordeste 0 -- -- 72
2020-01-09 13:00:00 7.9 13 Este 25 Este 0 -- -- 84
2020-01-09 12:00:00 6.6 6 Sudeste 21 Sudeste 0 -- -- 89
2020-01-09 11:00:00 4.4 13 Este 26 Este 0 -- -- 97
2020-01-09 10:00:00 3.6 13 Este 26 Este 0 -- -- 98
2020-01-09 09:00:00 3 10 Este 27 Este 0 -- -- 98
2020-01-09 08:00:00 2.9 16 Este 27 Este 0 -- -- 97
2020-01-09 07:00:00 3 4 Este 16 Este 0 -- -- 97
2020-01-09 06:00:00 3.2 12 Este 27 Nordeste 0 -- -- 97
2020-01-09 05:00:00 3.3 14 Este 26 Este 0 -- -- 96
2020-01-09 04:00:00 3.6 15 Este 27 Nordeste 0 -- -- 96
2020-01-09 03:00:00 3.3 15 Este 31 Este 0 -- -- 95
2020-01-09 02:00:00 3.8 10 Este 31 Este 0 -- -- 92
2020-01-09 01:00:00 5 14 Este 27 Este 0 -- -- 88
2020-01-09 00:00:00 5.7 14 Este 25 Este 0 -- -- 86
2020-01-08 23:00:00 6 15 Este 27 Este 0 -- -- 85
2020-01-08 22:00:00 6.7 14 Este 26 Este 0 -- -- 80
2020-01-08 21:00:00 7.5 12 Este 22 Este 0 -- -- 74
2020-01-08 20:00:00 8.4 9 Este 20 Este 0 -- -- 66
2020-01-08 19:00:00 9.3 14 Este 23 Este 0 -- -- 62
2020-01-08 18:00:00 11.2 8 Este 16 Este 0 -- -- 54
2020-01-08 17:00:00 15.1 2 Sudeste 15 Este 0 -- -- 48
2020-01-08 16:00:00 15.3 8 Este 19 Este 0 -- -- 65
2020-01-08 15:00:00 16.4 10 Este 17 Este 0 -- -- 63
2020-01-08 14:00:00 15.9 3 Noroeste 15 Oeste 0 -- -- 67
2020-01-08 13:00:00 14.3 6 Oeste 20 Oeste 0 -- -- 74
2020-01-08 12:00:00 12.2 9 Oeste 21 Oeste 0 -- -- 81
2020-01-08 11:00:00 9.5 6 Noroeste 17 Oeste 0 -- -- 89
2020-01-08 10:00:00 6.1 3 Oeste 15 Oeste 0 -- -- 97
2020-01-08 09:00:00 4.9 4 Norte 14 Oeste 0 -- -- 98
2020-01-08 08:00:00 4.7 6 Noroeste 20 Noroeste 0 -- -- 95
2020-01-08 07:00:00 4.6 3 Norte 9 Oeste 0 -- -- 98
2020-01-08 06:00:00 5.2 4 Norte 20 Noroeste 0 -- -- 96
2020-01-08 05:00:00 5.7 8 Noroeste 17 Noroeste 0 -- -- 96
2020-01-08 04:00:00 4.8 3 Norte 15 Norte 0 -- -- 96
2020-01-08 03:00:00 5 2 Noroeste 14 Oeste 0 -- -- 95
2020-01-08 02:00:00 5.6 4 Norte 13 Norte 0 -- -- 94
2020-01-08 01:00:00 5.5 4 Norte 14 Norte 0 -- -- 95
2020-01-08 00:00:00 4.9 4 Noroeste 15 Noroeste 0 -- -- 95
2020-01-07 23:00:00 6.3 6 Noroeste 14 Oeste 0 -- -- 94
2020-01-07 22:00:00 6.6 4 Norte 9 Noroeste 0 -- -- 91
2020-01-07 21:00:00 7.8 4 Norte 10 Norte 0 -- -- 89
2020-01-07 20:00:00 7.2 3 Norte 6 Noroeste 0 -- -- 90
2020-01-07 19:00:00 9 0 Calma 3 Este 0 -- -- 83
2020-01-07 18:00:00 11.5 0 Calma 12 Sudoeste 0 -- -- 76
2020-01-07 17:00:00 14.1 4 Noroeste 19 Oeste 0 -- -- 69
2020-01-07 16:00:00 14.9 9 Oeste 23 Oeste 0 -- -- 65
2020-01-07 15:00:00 14.1 10 Oeste 19 Oeste 0 -- -- 67
2020-01-07 14:00:00 12.6 7 Oeste 14 Oeste 0 -- -- 70
2020-01-07 13:00:00 9.4 6 Oeste 12 Sudoeste 0 -- -- 81
2020-01-07 12:00:00 6.5 8 Oeste 15 Oeste 0 -- -- 90
2020-01-07 11:00:00 2.8 0 Calma 7 Nordeste 0 -- -- 99
2020-01-07 10:00:00 0.2 0 Calma 3 Sudoeste 0 -- -- 98
2020-01-07 09:00:00 -0.1 0 Calma 2 Sudoeste 0 -- -- 98
2020-01-07 08:00:00 0.2 0 Calma 6 Nordeste 0 -- -- 97
2020-01-07 07:00:00 0.5 2 Noroeste 6 Sudoeste 0 -- -- 97
2020-01-07 06:00:00 1.2 2 Noroeste 9 Nordeste 0 -- -- 98
2020-01-07 05:00:00 0.9 2 Norte 9 Norte 0 -- -- 96
2020-01-07 04:00:00 2.1 3 Norte 13 Noroeste 0 -- -- 93
2020-01-07 03:00:00 3.6 5 Noroeste 12 Oeste 0 -- -- 94
2020-01-07 02:00:00 2.5 4 Norte 14 Oeste 0 -- -- 93
2020-01-07 01:00:00 4.1 5 Noroeste 12 Oeste 0 -- -- 93
2020-01-07 00:00:00 4.3 5 Noroeste 12 Oeste 0 -- -- 92
2020-01-06 23:00:00 4.4 2 Norte 13 Oeste 0 -- -- 89
2020-01-06 22:00:00 5.6 5 Oeste 12 Oeste 0 -- -- 90
2020-01-06 21:00:00 2.7 2 Oeste 7 Oeste 0 -- -- 96
2020-01-06 20:00:00 1.9 0 Calma 5 Sudeste 0 -- -- 91
2020-01-06 19:00:00 3.1 2 Sur 4 Sudeste 0 -- -- 89
2020-01-06 18:00:00 5.6 0 Calma 3 Sur 0 -- -- 81
2020-01-06 17:00:00 9.1 2 Sudoeste 7 Sur 0 -- -- 69
2020-01-06 16:00:00 9.5 5 Sur 12 Sur 0 -- -- 69
2020-01-06 15:00:00 8.6 5 Sur 20 Sudeste 0 -- -- 71
2020-01-06 14:00:00 7.1 8 Sur 23 Sudeste 0 -- -- 76
2020-01-06 13:00:00 6.7 6 Sur 12 Sudeste 0 -- -- 77
2020-01-06 12:00:00 5.3 6 Sur 11 Sur 0 -- -- 81
2020-01-06 11:00:00 4.1 5 Sudeste 14 Sudeste 0 -- -- 84
2020-01-06 10:00:00 2.1 7 Sudeste 18 Este 0 -- -- 93